Yeager Airport
KCRW : now visible

Airfield :











YOU CAN JOIN US ON...

 
LOGIN :

Register | Disclaimer

   EN    FR    IT 

 









Legend :    VFR   Marginal VFR   IFR   Intensive IFR   Very Intensive IFR
Visi :
Ceiling :
>= 8 km
>= 3000ft
5 to 8 km
1000 to 3000 ft
1500m to 5 km
500 to 1000 ft
800 to 1500m
200 to 500 ft
< 800m
< 200 ft
Symbols :   Thunderstorms  Fog  Heavy snow  Heavy precipitations  Wind > 20 kt






- Airport Elevation : 981 ft
- IATA code : CRW


KCRW - Yeager

CURRENT METAR :
  • 071854Z VRB04G15KT 10SM SCT045 SCT070 SCT095 24/13 A2984 RMK AO2 RAB30E51 SLP098 P0002 T02390128

EXPIRED METARs :
  • 071754Z 26010G19KT 10SM BKN050 BKN075 24/11 A2988 RMK AO2 LTG DSNT NE SLP112 CB DSNT NE T02440111 10244 20111 56022
  • 071654Z 26008G21KT 10SM BKN048 BKN070 23/11 A2990 RMK AO2 SLP117 T02330111

TAF KCRW
Valid from the 07 at 18:00 until the 08 at 18:00 UTC


071739Z 0718/0818 25007G13KT P6SM SCT070
FM072300 23010KT P6SM BKN100
FM080800 24008G15KT 4SM SHRA VCTS BKN035CB
FM081100 27007KT 6SM SHRA OVC040
FM081300 26005KT P6SM BKN025
FM081700 29006G13KT P6SM -SHRA BKN050



MET'MAP, your aeronautical weather chart ! - Copyright ORBIFLY December 2007 - Disclaimer

ORBIFLY MET'MAP TEAM :

Programming & Development : Alexandra Zaïnal
Concept & original design : Baudouin d'Aumeries
Assistance for programming : Marc-Olivier Méhu
Technical & hardware support : Manuel Goepfert

Contact : metmap@orbifly.com




SOURCES & CREDITS :

   NOAA       Earth
Advisory